Time;durP1;ratioP1;P1;durP2;ratioP2;P2;SDS_P1;SDS_P2;PMS_P1;PMS_P2;Temp;Humidity;BMP_temperature;BMP_pressure;BME280_temperature;BME280_humidity;BME280_pressure;Samples;Min_cycle;Max_cycle;Signal;HPM_P1;HPM_P2
2022/10/08 00:00:08;;;;;;;;;;;;;;;;;;1044690;28;1949;-57
2022/10/08 00:01:00;;;;;;;;;;;;;;;;;;1049604;28;2429;-58
2022/10/08 00:01:35;;;;;;;;;;;;;;;;;;1049525;28;2019;-58
2022/10/08 00:02:06;;;;;;;;;;;;;;;;;;1049628;28;1962;-58
2022/10/08 00:02:36;;;;;;;;;;;;;;;;;;1050781;28;2152;-58
2022/10/08 00:03:07;;;;;;;;;;;;;;;;;;1046628;28;1924;-57
2022/10/08 00:03:39;;;;;;;;;;;;;;;;;;1041946;28;1915;-58
2022/10/08 00:04:11;;;;;;;;;;;;;;;;;;1042886;28;2193;-58
2022/10/08 00:04:42;;;;;;;;;;;;;;;;;;1043039;28;2203;-57
2022/10/08 00:05:12;;;;;;;;;;;;;;;;;;1046027;28;2459;-56
2022/10/08 00:05:43;;;;;;;;;;;;;;;;;;1047834;28;2420;-58
2022/10/08 00:06:13;;;;;;;;;;;;;;;;;;1050047;28;2366;-58
2022/10/08 00:06:43;;;;;;;;;;;;;;;;;;1047243;28;2343;-58
2022/10/08 00:07:13;;;;;;;;;;;;;;;;;;1048400;28;2370;-58
2022/10/08 00:07:46;;;;;;;;;;;;;;;;;;1050788;28;1530;-59
2022/10/08 00:08:24;;;;;;;;;;;;;;;;;;1048498;28;2030;-57
2022/10/08 00:08:56;;;;;;;;;;;;;;;;;;1046852;28;2615;-58
2022/10/08 00:09:29;;;;;;;;;;;;;;;;;;1049179;28;2476;-58
2022/10/08 00:09:59;;;;;;;;;;;;;;;;;;1048682;28;2418;-56
2022/10/08 00:10:31;;;;;;;;;;;;;;;;;;1049423;28;2122;-59
2022/10/08 00:11:03;;;;;;;;;;;;;;;;;;1048727;28;1975;-57
2022/10/08 00:11:38;;;;;;;;;;;;;;;;;;1048136;28;2515;-56
2022/10/08 00:12:09;;;;;;;;;;;;;;;;;;1049181;28;2471;-59
2022/10/08 00:12:39;;;;;;;;;;;;;;;;;;1048934;28;2454;-56
2022/10/08 00:13:10;;;;;;;;;;;;;;;;;;1049160;28;1939;-57
2022/10/08 00:13:41;;;;;;;;;;;;;;;;;;1050619;28;2577;-58
2022/10/08 00:14:11;;;;;;;;;;;;;;;;;;1048948;28;2486;-58
2022/10/08 00:14:42;;;;;;;;;;;;;;;;;;1049628;28;2388;-58
2022/10/08 00:15:12;;;;;;;;;;;;;;;;;;1047740;28;2407;-59
2022/10/08 00:15:42;;;;;;;;;;;;;;;;;;1048656;28;2426;-58
2022/10/08 00:16:18;;;;;;;;;;;;;;;;;;1047721;28;2573;-56
2022/10/08 00:16:49;;;;;;;;;;;;;;;;;;1048825;28;2021;-58
2022/10/08 00:17:19;;;;;;;;;;;;;;;;;;1046599;28;1790;-59
2022/10/08 00:17:50;;;;;;;;;;;;;;;;;;1047976;28;2569;-58
2022/10/08 00:18:21;;;;;;;;;;;;;;;;;;1048566;28;2183;-56
2022/10/08 00:18:53;;;;;;;;;;;;;;;;;;1044777;28;2476;-56
2022/10/08 00:19:23;;;;;;;;;;;;;;;;;;1043870;28;2314;-59
2022/10/08 00:19:56;;;;;;;;;;;;;;;;;;1044659;28;2459;-56
2022/10/08 00:20:26;;;;;;;;;;;;;;;;;;1045256;28;2379;-57
2022/10/08 00:21:13;;;;;;;;;;;;;;;;;;1047998;28;2434;-58
2022/10/08 00:21:45;;;;;;;;;;;;;;;;;;1047671;28;2183;-56
2022/10/08 00:22:15;;;;;;;;;;;;;;;;;;1049543;28;2610;-58
2022/10/08 00:22:46;;;;;;;;;;;;;;;;;;1047085;28;2347;-57
2022/10/08 00:23:16;;;;;;;;;;;;;;;;;;1050157;28;3001;-58
2022/10/08 00:23:47;;;;;;;;;;;;;;;;;;1049113;28;2335;-58
2022/10/08 00:24:18;;;;;;;;;;;;;;;;;;1049044;28;3213;-57
2022/10/08 00:24:52;;;;;;;;;;;;;;;;;;1048691;28;2557;-57
2022/10/08 00:25:22;;;;;;;;;;;;;;;;;;1050092;28;2627;-58
2022/10/08 00:25:53;;;;;;;;;;;;;;;;;;1049735;28;2521;-58
2022/10/08 00:26:25;;;;;;;;;;;;;;;;;;1047838;28;2440;-56
2022/10/08 00:26:59;;;;;;;;;;;;;;;;;;1049245;28;2539;-57
2022/10/08 00:27:36;;;;;;;;;;;;;;;;;;1044117;28;2612;-58
2022/10/08 00:28:13;;;;;;;;;;;;;;;;;;1044075;28;2485;-59
2022/10/08 00:28:45;;;;;;;;;;;;;;;;;;1045632;28;2461;-59
2022/10/08 00:29:16;;;;;;;;;;;;;;;;;;1048105;28;2478;-56
2022/10/08 00:29:47;;;;;;;;;;;;;;;;;;1048836;28;2423;-57
2022/10/08 00:30:18;;;;;;;;;;;;;;;;;;1046634;28;2562;-58
2022/10/08 00:30:49;;;;;;;;;;;;;;;;;;1050882;28;1926;-58
2022/10/08 00:31:20;;;;;;;;;;;;;;;;;;1047152;28;1843;-58
2022/10/08 00:31:51;;;;;;;;;;;;;;;;;;1047769;28;2521;-56
2022/10/08 00:32:21;;;;;;;;;;;;;;;;;;1048532;28;2733;-58
2022/10/08 00:32:51;;;;;;;;;;;;;;;;;;1050261;28;2423;-58
2022/10/08 00:33:22;;;;;;;;;;;;;;;;;;1047516;28;2299;-57
2022/10/08 00:33:53;;;;;;;;;;;;;;;;;;1051591;28;1822;-58
2022/10/08 00:34:24;;;;;;;;;;;;;;;;;;1049540;28;2303;-58
2022/10/08 00:34:54;;;;;;;;;;;;;;;;;;1049141;28;3769;-58
2022/10/08 00:35:25;;;;;;;;;;;;;;;;;;1049113;28;2383;-57
2022/10/08 00:35:59;;;;;;;;;;;;;;;;;;1051165;28;1469;-57
2022/10/08 00:36:32;;;;;;;;;;;;;;;;;;1048143;28;2502;-55
2022/10/08 00:37:03;;;;;;;;;;;;;;;;;;1047811;28;2345;-58
2022/10/08 00:37:33;;;;;;;;;;;;;;;;;;1049699;28;2856;-57
2022/10/08 00:38:05;;;;;;;;;;;;;;;;;;1047750;28;2840;-58
2022/10/08 00:38:37;;;;;;;;;;;;;;;;;;1048292;28;2443;-58
2022/10/08 00:39:12;;;;;;;;;;;;;;;;;;1047739;28;2531;-58
2022/10/08 00:39:43;;;;;;;;;;;;;;;;;;1049230;28;2209;-56
2022/10/08 00:40:14;;;;;;;;;;;;;;;;;;1050634;28;2461;-58
2022/10/08 00:40:45;;;;;;;;;;;;;;;;;;1046270;28;2524;-56
2022/10/08 00:41:19;;;;;;;;;;;;;;;;;;1046990;28;2348;-57
2022/10/08 00:41:51;;;;;;;;;;;;;;;;;;1044427;28;2471;-58
2022/10/08 00:42:22;;;;;;;;;;;;;;;;;;1044253;28;2048;-56
2022/10/08 00:42:53;;;;;;;;;;;;;;;;;;1044312;28;2066;-56
2022/10/08 00:43:43;;;;;;;;;;;;;;;;;;1047207;28;2198;-57
2022/10/08 00:44:31;;;;;;;;;;;;;;;;;;1049704;28;2632;-58
2022/10/08 00:45:02;;;;;;;;;;;;;;;;;;1048826;28;1997;-58
2022/10/08 00:45:33;;;;;;;;;;;;;;;;;;1047706;28;2520;-57
2022/10/08 00:46:04;;;;;;;;;;;;;;;;;;1050135;28;2668;-58
2022/10/08 00:46:36;;;;;;;;;;;;;;;;;;1050225;28;2293;-58
2022/10/08 00:47:14;;;;;;;;;;;;;;;;;;1048801;28;2516;-58
2022/10/08 00:47:46;;;;;;;;;;;;;;;;;;1047298;28;2092;-56
2022/10/08 00:48:19;;;;;;;;;;;;;;;;;;1048003;28;2178;-58
2022/10/08 00:48:58;;;;;;;;;;;;;;;;;;1049647;28;2118;-58
2022/10/08 00:49:29;;;;;;;;;;;;;;;;;;1051052;28;2041;-57
2022/10/08 00:50:00;;;;;;;;;;;;;;;;;;1051115;28;1723;-57
2022/10/08 00:50:32;;;;;;;;;;;;;;;;;;1048035;28;2444;-58
2022/10/08 00:51:04;;;;;;;;;;;;;;;;;;1048726;28;1566;-56
2022/10/08 00:51:35;;;;;;;;;;;;;;;;;;1047379;28;2499;-58
2022/10/08 00:52:07;;;;;;;;;;;;;;;;;;1048059;28;2796;-58
2022/10/08 00:52:40;;;;;;;;;;;;;;;;;;1047927;28;2022;-55
2022/10/08 00:53:11;;;;;;;;;;;;;;;;;;1050406;28;2216;-59
2022/10/08 00:53:42;;;;;;;;;;;;;;;;;;1049354;28;2196;-57
2022/10/08 00:54:13;;;;;;;;;;;;;;;;;;1047613;28;2105;-58
2022/10/08 00:54:50;;;;;;;;;;;;;;;;;;1050363;28;2109;-58
2022/10/08 00:55:21;;;;;;;;;;;;;;;;;;1048118;28;3045;-56
2022/10/08 00:55:51;;;;;;;;;;;;;;;;;;1046832;28;2747;-58
2022/10/08 00:56:23;;;;;;;;;;;;;;;;;;1048573;28;2524;-59
2022/10/08 00:56:54;;;;;;;;;;;;;;;;;;1048685;28;2178;-58
2022/10/08 00:57:25;;;;;;;;;;;;;;;;;;1050315;28;1920;-56
2022/10/08 00:58:00;;;;;;;;;;;;;;;;;;1047363;28;2034;-58
2022/10/08 00:58:32;;;;;;;;;;;;;;;;;;1046913;28;2403;-59
2022/10/08 00:59:04;;;;;;;;;;;;;;;;;;1044981;28;2365;-58
2022/10/08 00:59:36;;;;;;;;;;;;;;;;;;1040226;28;2454;-58
2022/10/08 01:00:12;;;;;;;;;;;;;;;;;;1038040;28;2452;-57
2022/10/08 01:00:43;;;;;;;;;;;;;;;;;;1037611;28;2587;-57
2022/10/08 01:01:13;;;;;;;;;;;;;;;;;;1043985;28;1998;-56
2022/10/08 01:01:44;;;;;;;;;;;;;;;;;;1047532;28;2296;-58
2022/10/08 01:02:15;;;;;;;;;;;;;;;;;;1049195;28;2218;-58
2022/10/08 01:02:46;;;;;;;;;;;;;;;;;;1041986;28;2500;-58
2022/10/08 01:03:16;;;;;;;;;;;;;;;;;;1040866;28;2334;-58
2022/10/08 01:03:47;;;;;;;;;;;;;;;;;;1042930;28;2047;-55
2022/10/08 01:04:17;;;;;;;;;;;;;;;;;;1046416;28;2089;-59
2022/10/08 01:04:48;;;;;;;;;;;;;;;;;;1047258;28;1602;-57
2022/10/08 01:05:23;;;;;;;;;;;;;;;;;;1047492;28;2464;-59
2022/10/08 01:06:06;;;;;;;;;;;;;;;;;;1046662;28;1706;-57
2022/10/08 01:06:42;;;;;;;;;;;;;;;;;;1048369;28;2035;-57
2022/10/08 01:07:23;;;;;;;;;;;;;;;;;;1047187;28;1827;-57
2022/10/08 01:07:59;;;;;;;;;;;;;;;;;;1054239;28;2088;-57
2022/10/08 01:08:33;;;;;;;;;;;;;;;;;;1050438;28;2342;-56
2022/10/08 01:09:08;;;;;;;;;;;;;;;;;;1046989;28;2608;-58
2022/10/08 01:09:49;;;;;;;;;;;;;;;;;;1048239;28;2044;-56
2022/10/08 01:10:45;;;;;;;;;;;;;;;;;;1047015;28;2188;-57
2022/10/08 01:11:32;;;;;;;;;;;;;;;;;;1046519;28;1768;-58
2022/10/08 01:12:29;;;;;;;;;;;;;;;;;;1049328;28;2842;-56
2022/10/08 01:13:03;;;;;;;;;;;;;;;;;;1032791;28;2403;-56
2022/10/08 01:13:40;;;;;;;;;;;;;;;;;;1038726;28;1640;-58
2022/10/08 01:14:11;;;;;;;;;;;;;;;;;;1049464;28;2173;-57
2022/10/08 01:14:53;;;;;;;;;;;;;;;;;;1049108;28;2477;-58
2022/10/08 01:15:41;;;;;;;;;;;;;;;;;;1045273;28;2413;-55
2022/10/08 01:16:31;;;;;;;;;;;;;;;;;;1048291;28;2547;-55
2022/10/08 01:17:01;;;;;;;;;;;;;;;;;;1046098;28;2750;-56
2022/10/08 01:17:50;;;;;;;;;;;;;;;;;;1047954;28;2955;-52
2022/10/08 01:18:24;;;;;;;;;;;;;;;;;;1050597;28;1981;-59
2022/10/08 01:19:07;;;;;;;;;;;;;;;;;;1049895;28;2456;-59
2022/10/08 01:19:58;;;;;;;;;;;;;;;;;;1044319;28;2249;-59
2022/10/08 01:20:36;;;;;;;;;;;;;;;;;;1042266;28;2460;-59
2022/10/08 01:21:08;;;;;;;;;;;;;;;;;;1042634;28;1673;-57
2022/10/08 01:21:54;;;;;;;;;;;;;;;;;;1046698;28;2474;-54
2022/10/08 01:22:26;;;;;;;;;;;;;;;;;;1047478;28;1934;-57
2022/10/08 01:23:15;;;;;;;;;;;;;;;;;;1048398;28;2334;-59
2022/10/08 01:23:45;;;;;;;;;;;;;;;;;;1049590;28;2177;-56
2022/10/08 01:24:16;;;;;;;;;;;;;;;;;;1048825;28;2490;-56
2022/10/08 01:25:52;;;;;;;;;;;;;;;;;;1042846;28;2152;-56
2022/10/08 01:26:44;;;;;;;;;;;;;;;;;;1045559;28;2174;-58
2022/10/08 01:27:26;;;;;;;;;;;;;;;;;;1034698;28;3502;-57
2022/10/08 01:28:04;;;;;;;;;;;;;;;;;;1041069;28;2367;-59
2022/10/08 01:28:42;;;;;;;;;;;;;;;;;;1045973;28;2020;-58
2022/10/08 01:29:31;;;;;;;;;;;;;;;;;;1046324;28;2614;-58
2022/10/08 01:30:04;;;;;;;;;;;;;;;;;;1050636;28;1733;-58
2022/10/08 01:30:37;;;;;;;;;;;;;;;;;;1048913;28;2661;-58
2022/10/08 01:31:09;;;;;;;;;;;;;;;;;;1048202;28;2602;-58
2022/10/08 01:31:43;;;;;;;;;;;;;;;;;;1049119;28;2966;-58
2022/10/08 01:32:19;;;;;;;;;;;;;;;;;;1049416;28;1682;-55
2022/10/08 01:32:55;;;;;;;;;;;;;;;;;;1045523;28;2466;-58
2022/10/08 01:33:34;;;;;;;;;;;;;;;;;;1045827;28;2386;-58
2022/10/08 01:34:15;;;;;;;;;;;;;;;;;;1043938;28;2631;-58
2022/10/08 01:34:49;;;;;;;;;;;;;;;;;;1047318;28;2302;-57
2022/10/08 01:35:25;;;;;;;;;;;;;;;;;;1045308;28;1679;-56
2022/10/08 01:35:57;;;;;;;;;;;;;;;;;;1042696;28;2619;-57
2022/10/08 01:36:30;;;;;;;;;;;;;;;;;;1044772;28;2890;-57
2022/10/08 01:37:01;;;;;;;;;;;;;;;;;;1045300;28;2390;-57
2022/10/08 01:37:35;;;;;;;;;;;;;;;;;;1048632;28;2304;-56
2022/10/08 01:38:06;;;;;;;;;;;;;;;;;;1049181;28;2050;-54
2022/10/08 01:38:40;;;;;;;;;;;;;;;;;;1047672;28;1575;-55
2022/10/08 01:39:14;;;;;;;;;;;;;;;;;;1048737;28;2152;-58
2022/10/08 01:39:46;;;;;;;;;;;;;;;;;;1045032;28;2394;-59
2022/10/08 01:40:19;;;;;;;;;;;;;;;;;;1044974;28;2219;-58
2022/10/08 01:40:51;;;;;;;;;;;;;;;;;;1045562;28;2439;-59
2022/10/08 01:41:23;;;;;;;;;;;;;;;;;;1046438;28;2622;-57
2022/10/08 01:41:57;;;;;;;;;;;;;;;;;;1050926;28;2378;-59
2022/10/08 01:42:38;;;;;;;;;;;;;;;;;;1044144;28;2366;-53
2022/10/08 01:43:09;;;;;;;;;;;;;;;;;;1045870;28;3025;-56
2022/10/08 01:43:42;;;;;;;;;;;;;;;;;;1045127;28;2376;-56
2022/10/08 01:44:23;;;;;;;;;;;;;;;;;;1046264;28;2442;-56
2022/10/08 01:44:57;;;;;;;;;;;;;;;;;;1048358;28;2481;-57
2022/10/08 01:45:33;;;;;;;;;;;;;;;;;;1047857;28;2336;-56
2022/10/08 01:46:10;;;;;;;;;;;;;;;;;;1046301;28;1537;-59
2022/10/08 01:46:42;;;;;;;;;;;;;;;;;;1044321;28;2128;-57
2022/10/08 01:47:15;;;;;;;;;;;;;;;;;;1046548;28;1745;-57
2022/10/08 01:47:46;;;;;;;;;;;;;;;;;;1047216;28;2306;-57
2022/10/08 01:48:20;;;;;;;;;;;;;;;;;;1051693;28;1728;-58
2022/10/08 01:48:52;;;;;;;;;;;;;;;;;;1048519;28;2126;-55
2022/10/08 01:49:24;;;;;;;;;;;;;;;;;;1050425;28;2362;-52
2022/10/08 01:49:58;;;;;;;;;;;;;;;;;;1048440;28;2513;-57
2022/10/08 01:50:32;;;;;;;;;;;;;;;;;;1048448;28;1668;-56
2022/10/08 01:51:22;;;;;;;;;;;;;;;;;;1047652;28;2976;-56
2022/10/08 01:52:02;;;;;;;;;;;;;;;;;;1043949;28;2267;-59
2022/10/08 01:52:35;;;;;;;;;;;;;;;;;;1044356;28;2064;-57
2022/10/08 01:53:10;;;;;;;;;;;;;;;;;;1051725;28;2008;-56
2022/10/08 01:53:43;;;;;;;;;;;;;;;;;;1048462;28;2415;-57
2022/10/08 01:54:15;;;;;;;;;;;;;;;;;;1049179;28;1976;-53
2022/10/08 01:54:47;;;;;;;;;;;;;;;;;;1047880;28;1512;-57
2022/10/08 01:55:22;;;;;;;;;;;;;;;;;;1045353;28;2028;-54
2022/10/08 01:55:54;;;;;;;;;;;;;;;;;;1044624;28;1454;-56
2022/10/08 01:56:26;;;;;;;;;;;;;;;;;;1043911;28;2022;-56
2022/10/08 01:56:58;;;;;;;;;;;;;;;;;;1045495;28;1896;-56
2022/10/08 01:57:29;;;;;;;;;;;;;;;;;;1047631;28;2171;-55
2022/10/08 01:58:05;;;;;;;;;;;;;;;;;;1047992;28;2634;-54
2022/10/08 01:58:46;;;;;;;;;;;;;;;;;;1049043;28;2285;-56
2022/10/08 01:59:16;;;;;;;;;;;;;;;;;;1047895;28;2244;-54
2022/10/08 01:59:53;;;;;;;;;;;;;;;;;;1048700;28;2115;-56
2022/10/08 02:00:23;;;;;;;;;;;;;;;;;;1049397;28;2818;-57
2022/10/08 02:00:54;;;;;;;;;;;;;;;;;;1050047;28;2425;-56
2022/10/08 02:01:27;;;;;;;;;;;;;;;;;;1050893;28;2005;-54
2022/10/08 02:01:58;;;;;;;;;;;;;;;;;;1049179;28;2593;-56
2022/10/08 02:02:28;;;;;;;;;;;;;;;;;;1051338;28;1992;-57
2022/10/08 02:02:59;;;;;;;;;;;;;;;;;;1050198;28;2446;-55
2022/10/08 02:03:29;;;;;;;;;;;;;;;;;;1047715;28;1586;-55
2022/10/08 02:04:52;;;;;;;;;;;;;;;;;;1050489;28;1610;-56
2022/10/08 02:05:23;;;;;;;;;;;;;;;;;;1047684;28;2180;-56
2022/10/08 02:05:53;;;;;;;;;;;;;;;;;;1049431;28;3273;-54
2022/10/08 02:06:25;;;;;;;;;;;;;;;;;;1050421;28;2540;-55
2022/10/08 02:06:56;;;;;;;;;;;;;;;;;;1050542;28;2869;-56
2022/10/08 02:07:29;;;;;;;;;;;;;;;;;;1048303;28;2332;-55
2022/10/08 02:08:00;;;;;;;;;;;;;;;;;;1046519;28;1833;-51
2022/10/08 02:08:31;;;;;;;;;;;;;;;;;;1037566;28;2101;-56
2022/10/08 02:09:02;;;;;;;;;;;;;;;;;;1035251;28;2122;-54
2022/10/08 02:09:34;;;;;;;;;;;;;;;;;;1040879;28;2106;-55
2022/10/08 02:10:04;;;;;;;;;;;;;;;;;;1045672;28;1740;-54
2022/10/08 02:10:35;;;;;;;;;;;;;;;;;;1048069;28;1910;-55
2022/10/08 02:11:06;;;;;;;;;;;;;;;;;;1047142;28;2541;-56
2022/10/08 02:11:37;;;;;;;;;;;;;;;;;;1047746;28;2542;-54
2022/10/08 02:12:09;;;;;;;;;;;;;;;;;;1046919;28;1984;-58
2022/10/08 02:12:40;;;;;;;;;;;;;;;;;;1043829;28;2290;-58
2022/10/08 02:13:11;;;;;;;;;;;;;;;;;;1038687;28;2204;-59
2022/10/08 02:13:42;;;;;;;;;;;;;;;;;;1039770;28;2032;-57
2022/10/08 02:14:12;;;;;;;;;;;;;;;;;;1044875;28;2140;-54
2022/10/08 02:14:46;;;;;;;;;;;;;;;;;;1046816;28;2637;-56
2022/10/08 02:15:17;;;;;;;;;;;;;;;;;;1048153;28;2345;-55
2022/10/08 02:15:58;;;;;;;;;;;;;;;;;;1049478;28;1755;-57
2022/10/08 02:16:29;;;;;;;;;;;;;;;;;;1049169;28;1838;-57
2022/10/08 02:17:07;;;;;;;;;;;;;;;;;;1048642;28;2013;-55
2022/10/08 02:17:41;;;;;;;;;;;;;;;;;;1049666;28;2390;-55
2022/10/08 02:18:17;;;;;;;;;;;;;;;;;;1047525;28;1867;-56
2022/10/08 02:18:54;;;;;;;;;;;;;;;;;;1050809;28;2484;-55
2022/10/08 02:19:43;;;;;;;;;;;;;;;;;;1049791;28;2536;-55
2022/10/08 02:20:22;;;;;;;;;;;;;;;;;;1048036;28;2119;-55
2022/10/08 02:20:57;;;;;;;;;;;;;;;;;;1049739;28;2730;-57
2022/10/08 02:21:28;;;;;;;;;;;;;;;;;;1050679;28;2055;-57
2022/10/08 02:22:00;;;;;;;;;;;;;;;;;;1049648;28;3009;-57
2022/10/08 02:22:44;;;;;;;;;;;;;;;;;;1053933;28;2053;-57
2022/10/08 02:23:17;;;;;;;;;;;;;;;;;;1051370;28;2008;-54
2022/10/08 02:23:54;;;;;;;;;;;;;;;;;;1048924;28;2030;-58
2022/10/08 02:24:45;;;;;;;;;;;;;;;;;;1051789;28;2510;-58
2022/10/08 02:25:21;;;;;;;;;;;;;;;;;;1049222;28;2287;-58
2022/10/08 02:25:57;;;;;;;;;;;;;;;;;;1047553;28;2897;-59
2022/10/08 02:26:31;;;;;;;;;;;;;;;;;;1049298;28;1965;-55
2022/10/08 02:27:03;;;;;;;;;;;;;;;;;;1047913;28;2940;-56
2022/10/08 02:27:51;;;;;;;;;;;;;;;;;;1043813;28;1978;-57
2022/10/08 02:28:30;;;;;;;;;;;;;;;;;;1036616;28;2381;-57
2022/10/08 02:29:21;;;;;;;;;;;;;;;;;;1037335;28;2350;-59
2022/10/08 02:29:57;;;;;;;;;;;;;;;;;;1041557;28;2703;-62
2022/10/08 02:30:45;;;;;;;;;;;;;;;;;;1044671;28;2519;-57
2022/10/08 02:31:22;;;;;;;;;;;;;;;;;;1044133;28;2559;-58
2022/10/08 02:31:56;;;;;;;;;;;;;;;;;;1042130;28;2671;-58
2022/10/08 02:32:42;;;;;;;;;;;;;;;;;;1044873;28;2091;-57
2022/10/08 02:33:14;;;;;;;;;;;;;;;;;;1049491;28;2030;-57
2022/10/08 02:33:48;;;;;;;;;;;;;;;;;;1048488;28;2468;-58
2022/10/08 02:34:19;;;;;;;;;;;;;;;;;;1046892;28;2172;-55
2022/10/08 02:34:54;;;;;;;;;;;;;;;;;;1051806;28;2243;-57
2022/10/08 02:35:37;;;;;;;;;;;;;;;;;;1047914;28;2125;-54
2022/10/08 02:36:08;;;;;;;;;;;;;;;;;;1049791;28;2422;-58
2022/10/08 02:36:44;;;;;;;;;;;;;;;;;;1047020;28;3076;-55
2022/10/08 02:37:20;;;;;;;;;;;;;;;;;;1049028;28;2319;-57
2022/10/08 02:38:00;;;;;;;;;;;;;;;;;;1049825;28;2124;-58
2022/10/08 02:38:37;;;;;;;;;;;;;;;;;;1046435;28;2038;-56
2022/10/08 02:39:09;;;;;;;;;;;;;;;;;;1045938;28;2400;-58
2022/10/08 02:39:42;;;;;;;;;;;;;;;;;;1044807;28;2364;-56
2022/10/08 02:40:14;;;;;;;;;;;;;;;;;;1048014;28;2109;-57
2022/10/08 02:40:48;;;;;;;;;;;;;;;;;;1047427;28;2380;-55
2022/10/08 02:41:25;;;;;;;;;;;;;;;;;;1050216;28;2522;-58
2022/10/08 02:41:59;;;;;;;;;;;;;;;;;;1048230;28;2485;-57
2022/10/08 02:42:30;;;;;;;;;;;;;;;;;;1051496;28;2024;-58
2022/10/08 02:43:05;;;;;;;;;;;;;;;;;;1049605;28;2031;-58
2022/10/08 02:43:37;;;;;;;;;;;;;;;;;;1047826;28;2099;-58
2022/10/08 02:44:11;;;;;;;;;;;;;;;;;;1041072;28;2584;-59
2022/10/08 02:44:45;;;;;;;;;;;;;;;;;;1047693;28;1774;-58
2022/10/08 02:45:21;;;;;;;;;;;;;;;;;;1040762;28;2358;-58
2022/10/08 02:45:55;;;;;;;;;;;;;;;;;;1044575;28;2370;-59
2022/10/08 02:46:27;;;;;;;;;;;;;;;;;;1048694;28;2236;-58
2022/10/08 02:46:59;;;;;;;;;;;;;;;;;;1051980;28;1599;-56
2022/10/08 02:47:34;;;;;;;;;;;;;;;;;;1050561;28;2629;-55
2022/10/08 02:48:07;;;;;;;;;;;;;;;;;;1047764;28;1934;-56
2022/10/08 02:48:41;;;;;;;;;;;;;;;;;;1047186;28;1994;-56
2022/10/08 02:49:17;;;;;;;;;;;;;;;;;;1048633;28;1615;-57
2022/10/08 02:49:50;;;;;;;;;;;;;;;;;;1048921;28;3691;-55
2022/10/08 02:50:27;;;;;;;;;;;;;;;;;;1047796;28;2193;-56
2022/10/08 02:51:04;;;;;;;;;;;;;;;;;;1049407;28;2327;-56
2022/10/08 02:51:38;;;;;;;;;;;;;;;;;;1048216;28;2396;-56
2022/10/08 02:52:09;;;;;;;;;;;;;;;;;;1049958;28;2009;-56
2022/10/08 02:52:42;;;;;;;;;;;;;;;;;;1050460;28;2124;-55
2022/10/08 02:53:14;;;;;;;;;;;;;;;;;;1049171;28;2436;-56
2022/10/08 02:53:48;;;;;;;;;;;;;;;;;;1047969;28;2559;-57
2022/10/08 02:54:20;;;;;;;;;;;;;;;;;;1050367;28;2272;-59
2022/10/08 02:54:51;;;;;;;;;;;;;;;;;;1051653;28;2090;-56
2022/10/08 02:55:26;;;;;;;;;;;;;;;;;;1048157;28;2576;-54
2022/10/08 02:56:15;;;;;;;;;;;;;;;;;;1046063;28;2550;-57
2022/10/08 02:57:06;;;;;;;;;;;;;;;;;;1045186;28;2353;-57
2022/10/08 02:57:41;;;;;;;;;;;;;;;;;;1035590;28;1759;-55
2022/10/08 02:58:12;;;;;;;;;;;;;;;;;;1047701;28;2657;-56
2022/10/08 02:58:45;;;;;;;;;;;;;;;;;;1045394;28;2633;-57
2022/10/08 02:59:16;;;;;;;;;;;;;;;;;;1044905;28;2243;-55
2022/10/08 02:59:47;;;;;;;;;;;;;;;;;;1046206;28;3077;-56
2022/10/08 03:00:18;;;;;;;;;;;;;;;;;;1045994;28;2593;-55
2022/10/08 03:00:52;;;;;;;;;;;;;;;;;;1047868;28;1637;-54
2022/10/08 03:01:32;;;;;;;;;;;;;;;;;;1040721;28;2135;-58
2022/10/08 03:02:04;;;;;;;;;;;;;;;;;;1040282;28;2456;-59
2022/10/08 03:02:37;;;;;;;;;;;;;;;;;;1036771;28;2252;-55
2022/10/08 03:03:10;;;;;;;;;;;;;;;;;;1038180;28;1905;-55
2022/10/08 03:03:44;;;;;;;;;;;;;;;;;;1043707;28;2042;-56
2022/10/08 03:04:21;;;;;;;;;;;;;;;;;;1048096;28;1221;-58
2022/10/08 03:04:58;;;;;;;;;;;;;;;;;;1048483;28;2249;-55
2022/10/08 03:05:30;;;;;;;;;;;;;;;;;;1048071;28;2443;-56
2022/10/08 03:06:03;;;;;;;;;;;;;;;;;;1050635;28;2502;-58
2022/10/08 03:06:35;;;;;;;;;;;;;;;;;;1050954;28;2705;-56
2022/10/08 03:07:06;;;;;;;;;;;;;;;;;;1049862;28;2444;-59
2022/10/08 03:07:36;;;;;;;;;;;;;;;;;;1050830;28;2358;-58
2022/10/08 03:08:09;;;;;;;;;;;;;;;;;;1049672;28;2101;-57
2022/10/08 03:08:42;;;;;;;;;;;;;;;;;;1044937;28;2333;-57
2022/10/08 03:09:13;;;;;;;;;;;;;;;;;;1041803;28;2149;-58
2022/10/08 03:09:46;;;;;;;;;;;;;;;;;;1041807;28;2348;-58
2022/10/08 03:10:17;;;;;;;;;;;;;;;;;;1046314;28;2374;-56
2022/10/08 03:10:48;;;;;;;;;;;;;;;;;;1046950;28;2443;-58
2022/10/08 03:11:20;;;;;;;;;;;;;;;;;;1051107;28;2778;-57
2022/10/08 03:11:51;;;;;;;;;;;;;;;;;;1047467;28;2931;-54
2022/10/08 03:12:26;;;;;;;;;;;;;;;;;;1050658;28;2308;-56
2022/10/08 03:13:00;;;;;;;;;;;;;;;;;;1047044;28;2408;-58
2022/10/08 03:13:33;;;;;;;;;;;;;;;;;;1048660;28;2482;-57
2022/10/08 03:14:07;;;;;;;;;;;;;;;;;;1048246;28;2462;-59
2022/10/08 03:14:40;;;;;;;;;;;;;;;;;;1047252;28;2100;-58
2022/10/08 03:15:13;;;;;;;;;;;;;;;;;;1046153;28;2443;-57
2022/10/08 03:15:44;;;;;;;;;;;;;;;;;;1036127;28;2101;-58
2022/10/08 03:16:18;;;;;;;;;;;;;;;;;;1033121;28;1754;-58
2022/10/08 03:16:49;;;;;;;;;;;;;;;;;;1039096;28;2157;-56
2022/10/08 03:17:31;;;;;;;;;;;;;;;;;;1041024;28;1623;-57
2022/10/08 03:18:03;;;;;;;;;;;;;;;;;;1050467;28;2402;-58
2022/10/08 03:18:36;;;;;;;;;;;;;;;;;;1047063;28;2450;-56
2022/10/08 03:19:10;;;;;;;;;;;;;;;;;;1046296;28;1997;-55
2022/10/08 03:19:41;;;;;;;;;;;;;;;;;;1045535;28;2533;-58
2022/10/08 03:20:11;;;;;;;;;;;;;;;;;;1041995;28;2189;-59
2022/10/08 03:20:46;;;;;;;;;;;;;;;;;;1038578;28;2720;-59
2022/10/08 03:21:17;;;;;;;;;;;;;;;;;;1044885;28;2532;-55
2022/10/08 03:21:48;;;;;;;;;;;;;;;;;;1042177;28;2702;-58
2022/10/08 03:22:20;;;;;;;;;;;;;;;;;;1039514;28;2425;-58
2022/10/08 03:22:53;;;;;;;;;;;;;;;;;;1039102;28;2393;-59
2022/10/08 03:23:24;;;;;;;;;;;;;;;;;;1039568;28;2709;-58
2022/10/08 03:23:55;;;;;;;;;;;;;;;;;;1041725;28;1712;-55
2022/10/08 03:24:25;;;;;;;;;;;;;;;;;;1047504;28;2282;-59
2022/10/08 03:24:57;;;;;;;;;;;;;;;;;;1048556;28;2786;-57
2022/10/08 03:25:30;;;;;;;;;;;;;;;;;;1049629;28;2439;-59
2022/10/08 03:26:01;;;;;;;;;;;;;;;;;;1049974;28;2014;-56
2022/10/08 03:26:31;;;;;;;;;;;;;;;;;;1049969;28;2231;-59
2022/10/08 03:27:03;;;;;;;;;;;;;;;;;;1043128;28;2550;-56
2022/10/08 03:27:40;;;;;;;;;;;;;;;;;;1040170;28;2170;-58
2022/10/08 03:28:17;;;;;;;;;;;;;;;;;;1039658;28;2536;-54
2022/10/08 03:28:55;;;;;;;;;;;;;;;;;;1042131;28;2382;-57
2022/10/08 03:29:25;;;;;;;;;;;;;;;;;;1047068;28;2072;-59
2022/10/08 03:29:56;;;;;;;;;;;;;;;;;;1049705;28;1856;-57
2022/10/08 03:30:26;;;;;;;;;;;;;;;;;;1047396;28;1870;-58
2022/10/08 03:30:56;;;;;;;;;;;;;;;;;;1048747;28;2968;-57
2022/10/08 03:31:26;;;;;;;;;;;;;;;;;;1048552;28;1787;-57
2022/10/08 03:31:57;;;;;;;;;;;;;;;;;;1048395;28;2199;-57
2022/10/08 03:32:27;;;;;;;;;;;;;;;;;;1048589;28;1956;-58
2022/10/08 03:32:57;;;;;;;;;;;;;;;;;;1049364;28;2947;-58
2022/10/08 03:33:28;;;;;;;;;;;;;;;;;;1048347;28;2269;-57
2022/10/08 03:33:58;;;;;;;;;;;;;;;;;;1048414;28;2188;-57
2022/10/08 03:34:28;;;;;;;;;;;;;;;;;;1047233;28;2431;-58
2022/10/08 03:34:59;;;;;;;;;;;;;;;;;;1047715;28;2754;-57
2022/10/08 03:35:29;;;;;;;;;;;;;;;;;;1047553;28;2635;-56
2022/10/08 03:35:59;;;;;;;;;;;;;;;;;;1050409;28;2063;-56
2022/10/08 03:36:30;;;;;;;;;;;;;;;;;;1049734;28;2260;-57
2022/10/08 03:37:00;;;;;;;;;;;;;;;;;;1047209;28;2596;-56
2022/10/08 03:37:31;;;;;;;;;;;;;;;;;;1045521;28;2101;-56
2022/10/08 03:38:01;;;;;;;;;;;;;;;;;;1043949;28;2085;-57
2022/10/08 03:38:32;;;;;;;;;;;;;;;;;;1048726;28;1679;-57
2022/10/08 03:39:03;;;;;;;;;;;;;;;;;;1050673;28;1872;-58
2022/10/08 03:39:34;;;;;;;;;;;;;;;;;;1048729;28;2583;-57
2022/10/08 03:40:08;;;;;;;;;;;;;;;;;;1045004;28;1948;-55
2022/10/08 03:40:39;;;;;;;;;;;;;;;;;;1044672;28;2543;-58
2022/10/08 03:41:09;;;;;;;;;;;;;;;;;;1046612;28;2373;-57
2022/10/08 03:41:39;;;;;;;;;;;;;;;;;;1048745;28;4479;-57
2022/10/08 03:42:10;;;;;;;;;;;;;;;;;;1047715;28;1977;-58
2022/10/08 03:42:42;;;;;;;;;;;;;;;;;;1043837;28;2094;-57
2022/10/08 03:43:12;;;;;;;;;;;;;;;;;;1040554;28;2045;-57
2022/10/08 03:43:43;;;;;;;;;;;;;;;;;;1037455;28;2569;-56
2022/10/08 03:44:13;;;;;;;;;;;;;;;;;;1041855;28;2196;-56
2022/10/08 03:44:44;;;;;;;;;;;;;;;;;;1050652;28;2095;-59
2022/10/08 03:45:15;;;;;;;;;;;;;;;;;;1053979;28;2004;-56
2022/10/08 03:45:52;;;;;;;;;;;;;;;;;;1043765;28;2151;-58
2022/10/08 03:46:23;;;;;;;;;;;;;;;;;;1043374;28;2176;-58
2022/10/08 03:46:53;;;;;;;;;;;;;;;;;;1039981;28;3115;-57
2022/10/08 03:47:24;;;;;;;;;;;;;;;;;;1042315;28;2758;-55
2022/10/08 03:47:54;;;;;;;;;;;;;;;;;;1049599;28;2025;-57
2022/10/08 03:48:25;;;;;;;;;;;;;;;;;;1051314;28;1786;-57
2022/10/08 03:48:56;;;;;;;;;;;;;;;;;;1048367;28;1949;-58
2022/10/08 03:49:26;;;;;;;;;;;;;;;;;;1042351;28;1697;-58
2022/10/08 03:49:56;;;;;;;;;;;;;;;;;;1041470;28;1925;-58
2022/10/08 03:50:26;;;;;;;;;;;;;;;;;;1042631;28;2036;-56
2022/10/08 03:51:06;;;;;;;;;;;;;;;;;;1043788;28;2024;-58
2022/10/08 03:51:37;;;;;;;;;;;;;;;;;;1048339;28;2392;-58
2022/10/08 03:52:07;;;;;;;;;;;;;;;;;;1049790;28;3236;-58
2022/10/08 03:52:38;;;;;;;;;;;;;;;;;;1049220;28;2206;-58
2022/10/08 03:53:08;;;;;;;;;;;;;;;;;;1050183;28;1754;-57
2022/10/08 03:53:41;;;;;;;;;;;;;;;;;;1046131;28;2750;-57
2022/10/08 03:54:12;;;;;;;;;;;;;;;;;;1046010;28;1893;-58
2022/10/08 03:54:42;;;;;;;;;;;;;;;;;;1042988;28;2265;-57
2022/10/08 03:55:13;;;;;;;;;;;;;;;;;;1042542;28;1707;-57
2022/10/08 03:55:43;;;;;;;;;;;;;;;;;;1045619;28;1957;-57
2022/10/08 03:56:18;;;;;;;;;;;;;;;;;;1046487;28;1665;-57